createdAt,value
2022-10-09T00:00:45.466Z,102705.72
2022-10-09T00:03:13.170Z,102708.00
2022-10-09T00:05:40.471Z,102710.78
2022-10-09T00:08:07.230Z,102713.09
2022-10-09T00:10:33.683Z,102704.91
2022-10-09T00:13:00.111Z,102705.25
2022-10-09T00:15:26.546Z,102707.53
2022-10-09T00:17:52.985Z,102713.91
2022-10-09T00:20:19.545Z,102708.03
2022-10-09T00:22:46.241Z,102703.78
2022-10-09T00:25:13.142Z,102715.22
2022-10-09T00:27:39.636Z,102716.53
2022-10-09T00:30:07.027Z,102716.69
2022-10-09T00:32:33.542Z,102712.59
2022-10-09T00:34:59.962Z,102714.06
2022-10-09T00:37:26.416Z,102706.03
2022-10-09T00:39:53.372Z,102709.00
2022-10-09T00:42:20.122Z,102699.84
2022-10-09T00:45:00.183Z,102705.56
2022-10-09T00:47:29.467Z,102700.31
2022-10-09T00:50:06.501Z,102701.78
2022-10-09T00:52:33.609Z,102701.13
2022-10-09T00:55:02.563Z,102702.91
2022-10-09T00:57:31.650Z,102701.78
2022-10-09T01:00:01.874Z,102704.06
2022-10-09T01:02:28.315Z,102711.91
2022-10-09T01:04:54.953Z,102700.94
2022-10-09T01:07:49.422Z,102707.63
2022-10-09T01:10:37.889Z,102702.41
2022-10-09T01:13:25.402Z,102700.44
2022-10-09T01:16:03.191Z,102702.41
2022-10-09T01:18:41.471Z,102697.97
2022-10-09T01:21:21.132Z,102696.50
2022-10-09T01:24:08.992Z,102699.44
2022-10-09T01:26:45.302Z,102694.22
2022-10-09T01:29:14.526Z,102681.94
2022-10-09T01:31:44.104Z,102686.84
2022-10-09T01:34:13.499Z,102684.53
2022-10-09T01:36:40.784Z,102675.88
2022-10-09T01:39:11.408Z,102676.69
2022-10-09T01:41:38.153Z,102671.13
2022-10-09T01:44:16.751Z,102672.91
2022-10-09T01:46:43.318Z,102669.81
2022-10-09T01:49:25.998Z,102676.34
2022-10-09T01:51:55.207Z,102668.03
2022-10-09T01:54:33.855Z,102670.81
2022-10-09T01:57:03.216Z,102669.00
2022-10-09T01:59:33.059Z,102659.69
2022-10-09T02:02:00.483Z,102662.78
2022-10-09T02:04:29.238Z,102659.50
2022-10-09T02:06:55.852Z,102659.34
2022-10-09T02:09:23.327Z,102658.84
2022-10-09T02:11:55.285Z,102655.56
2022-10-09T02:14:21.779Z,102649.00
2022-10-09T02:16:55.185Z,102651.28
2022-10-09T02:19:42.740Z,102644.56
2022-10-09T02:22:17.655Z,102646.06
2022-10-09T02:24:44.674Z,102645.91
2022-10-09T02:27:13.784Z,102636.09
2022-10-09T02:29:42.850Z,102630.88
2022-10-09T02:32:09.811Z,102633.50
2022-10-09T02:34:36.378Z,102630.38
2022-10-09T02:37:03.103Z,102636.88
2022-10-09T02:39:29.650Z,102630.69
2022-10-09T02:41:56.183Z,102637.56
2022-10-09T02:44:22.701Z,102640.00
2022-10-09T02:46:49.285Z,102629.88
2022-10-09T02:49:15.796Z,102638.19
2022-10-09T02:51:42.310Z,102631.00
2022-10-09T02:54:09.370Z,102633.63
2022-10-09T02:56:38.993Z,102627.41
2022-10-09T02:59:06.404Z,102633.91
2022-10-09T03:01:33.045Z,102629.00
2022-10-09T03:03:59.676Z,102629.81
2022-10-09T03:06:27.648Z,102626.25
2022-10-09T03:08:55.612Z,102625.56
2022-10-09T03:11:24.371Z,102630.66
2022-10-09T03:13:51.418Z,102626.34
2022-10-09T03:16:21.247Z,102628.00
2022-10-09T03:18:48.714Z,102629.78
2022-10-09T03:21:21.458Z,102625.03
2022-10-09T03:23:48.367Z,102626.97
2022-10-09T03:26:18.107Z,102626.47
2022-10-09T03:28:47.881Z,102621.75
2022-10-09T03:31:39.789Z,102625.34
2022-10-09T03:34:05.602Z,102622.06
2022-10-09T03:36:32.017Z,102622.84
2022-10-09T03:38:58.447Z,102622.03
2022-10-09T03:41:24.870Z,102624.63
2022-10-09T03:43:51.512Z,102622.69
2022-10-09T03:46:18.085Z,102627.44
2022-10-09T03:48:44.573Z,102625.59
2022-10-09T03:51:11.021Z,102622.63
2022-10-09T03:53:37.555Z,102628.66
2022-10-09T03:56:04.078Z,102627.84
2022-10-09T03:58:30.589Z,102624.09
2022-10-09T04:00:57.236Z,102631.41
2022-10-09T04:03:24.299Z,102636.13
2022-10-09T04:05:50.760Z,102625.69
2022-10-09T04:08:17.173Z,102635.63
2022-10-09T04:10:43.663Z,102638.22
2022-10-09T04:13:10.491Z,102637.25
2022-10-09T04:15:37.622Z,102642.47
2022-10-09T04:18:04.866Z,102645.03
2022-10-09T04:20:31.528Z,102639.44
2022-10-09T04:22:58.003Z,102634.22
2022-10-09T04:25:24.562Z,102633.88
2022-10-09T04:27:50.977Z,102631.94
2022-10-09T04:30:17.622Z,102630.97
2022-10-09T04:32:44.094Z,102631.59
2022-10-09T04:35:10.519Z,102626.38
2022-10-09T04:37:37.127Z,102623.97
2022-10-09T04:40:04.213Z,102623.09
2022-10-09T04:42:31.131Z,102625.03
2022-10-09T04:44:57.577Z,102618.31
2022-10-09T04:47:24.225Z,102608.50
2022-10-09T04:49:50.754Z,102613.19
2022-10-09T04:52:17.218Z,102608.94
2022-10-09T04:54:43.740Z,102611.41
2022-10-09T04:57:10.242Z,102608.78
2022-10-09T04:59:36.911Z,102614.53
2022-10-09T05:02:03.925Z,102612.38
2022-10-09T05:04:30.799Z,102614.97
2022-10-09T05:06:57.263Z,102615.78
2022-10-09T05:09:23.850Z,102605.97
2022-10-09T05:11:50.274Z,102615.06
2022-10-09T05:14:16.944Z,102607.72
2022-10-09T05:17:08.458Z,102609.81
2022-10-09T05:19:29.830Z,102601.63
2022-10-09T05:21:56.264Z,102598.84
2022-10-09T05:24:22.707Z,102604.75
2022-10-09T05:26:49.139Z,102602.94
2022-10-09T05:29:15.567Z,102606.53
2022-10-09T05:31:48.361Z,102604.06
2022-10-09T05:34:16.137Z,102607.50
2022-10-09T05:36:42.789Z,102607.06
2022-10-09T05:39:09.322Z,102596.47
2022-10-09T05:41:35.881Z,102601.31
2022-10-09T05:44:03.285Z,102597.22
2022-10-09T05:46:30.309Z,102597.53
2022-10-09T05:48:58.900Z,102601.31
2022-10-09T05:51:27.959Z,102598.72
2022-10-09T05:53:54.615Z,102598.34
2022-10-09T05:56:35.398Z,102604.53
2022-10-09T05:59:04.674Z,102610.25
2022-10-09T06:01:35.663Z,102606.81
2022-10-09T06:04:03.437Z,102607.50
2022-10-09T06:06:32.679Z,102610.47
2022-10-09T06:08:59.212Z,102612.94
2022-10-09T06:11:28.701Z,102609.22
2022-10-09T06:13:56.305Z,102607.75
2022-10-09T06:16:25.693Z,102614.47
2022-10-09T06:18:54.051Z,102616.09
2022-10-09T06:21:21.737Z,102621.69
2022-10-09T06:23:52.982Z,102618.47
2022-10-09T06:26:20.489Z,102625.19
2022-10-09T06:28:47.919Z,102623.44
2022-10-09T06:31:17.041Z,102626.09
2022-10-09T06:33:45.380Z,102626.44
2022-10-09T06:36:21.348Z,102622.09
2022-10-09T06:38:48.225Z,102624.91
2022-10-09T06:41:17.683Z,102622.38
2022-10-09T06:43:52.512Z,102620.63
2022-10-09T06:46:20.946Z,102616.78
2022-10-09T06:48:47.628Z,102618.41
2022-10-09T06:51:17.122Z,102624.13
2022-10-09T06:53:54.238Z,102619.59
2022-10-09T06:56:23.116Z,102623.72
2022-10-09T06:58:49.922Z,102632.72
2022-10-09T07:01:26.853Z,102629.63
2022-10-09T07:04:01.953Z,102627.84
2022-10-09T07:06:30.868Z,102622.63
2022-10-09T07:09:02.531Z,102626.56
2022-10-09T07:11:32.885Z,102626.25
2022-10-09T07:14:03.198Z,102628.03
2022-10-09T07:16:33.281Z,102635.91
2022-10-09T07:19:03.658Z,102633.13
2022-10-09T07:21:30.209Z,102633.09
2022-10-09T07:24:00.034Z,102634.72
2022-10-09T07:26:28.231Z,102628.03
2022-10-09T07:28:55.105Z,102629.34
2022-10-09T07:31:23.096Z,102630.47
2022-10-09T07:33:51.999Z,102623.06
2022-10-09T07:36:19.245Z,102625.00
2022-10-09T07:39:04.004Z,102623.00
2022-10-09T07:41:33.045Z,102616.91
2022-10-09T07:43:59.597Z,102624.09
2022-10-09T07:46:33.053Z,102623.41
2022-10-09T07:49:00.980Z,102624.84
2022-10-09T07:51:31.595Z,102629.50
2022-10-09T07:54:00.348Z,102632.56
2022-10-09T07:57:16.663Z,102625.91
2022-10-09T07:59:43.214Z,102624.88
2022-10-09T08:02:09.729Z,102627.41
2022-10-09T08:04:37.623Z,102619.44
2022-10-09T08:07:04.192Z,102618.84
2022-10-09T08:09:30.788Z,102614.53
2022-10-09T08:11:58.455Z,102617.56
2022-10-09T08:14:25.075Z,102618.72
2022-10-09T08:16:51.957Z,102612.41
2022-10-09T08:19:18.435Z,102609.53
2022-10-09T08:21:45.111Z,102609.69
2022-10-09T08:24:12.321Z,102607.06
2022-10-09T08:26:38.785Z,102612.69
2022-10-09T08:29:05.881Z,102612.38
2022-10-09T08:31:32.628Z,102604.22
2022-10-09T08:34:01.461Z,102606.75
2022-10-09T08:36:28.938Z,102601.19
2022-10-09T08:38:56.027Z,102599.34
2022-10-09T08:41:40.706Z,102598.59
2022-10-09T08:44:20.944Z,102590.22
2022-10-09T08:47:05.813Z,102588.88
2022-10-09T08:49:49.378Z,102578.47
2022-10-09T08:52:26.898Z,102583.41
2022-10-09T08:54:59.235Z,102573.97
2022-10-09T08:57:29.945Z,102577.69
2022-10-09T08:59:56.537Z,102577.19
2022-10-09T09:03:03.409Z,102578.66
2022-10-09T09:05:41.407Z,102576.34
2022-10-09T09:08:20.247Z,102574.16
2022-10-09T09:10:56.101Z,102570.97
2022-10-09T09:13:48.163Z,102565.75
2022-10-09T09:16:52.181Z,102561.50
2022-10-09T09:19:55.315Z,102566.22
2022-10-09T09:22:24.561Z,102566.47
2022-10-09T09:24:57.134Z,102555.50
2022-10-09T09:27:32.272Z,102549.44
2022-10-09T09:30:17.636Z,102541.72
2022-10-09T09:32:52.177Z,102541.69
2022-10-09T09:35:31.629Z,102539.88
2022-10-09T09:37:58.515Z,102531.72
2022-10-09T09:40:36.706Z,102531.06
2022-10-09T09:43:12.136Z,102536.34
2022-10-09T09:45:38.670Z,102526.94
2022-10-09T09:48:11.454Z,102526.50
2022-10-09T09:50:56.387Z,102521.59
2022-10-09T09:53:37.248Z,102521.56
2022-10-09T09:56:04.609Z,102516.25
2022-10-09T09:58:46.203Z,102502.56
2022-10-09T10:01:33.587Z,102499.66
2022-10-09T10:04:04.042Z,102500.44
2022-10-09T10:06:33.237Z,102497.50
2022-10-09T10:09:13.059Z,102491.94
2022-10-09T10:11:46.329Z,102492.28
2022-10-09T10:14:15.714Z,102485.69
2022-10-09T10:16:43.407Z,102492.75
2022-10-09T10:19:25.298Z,102486.81
2022-10-09T10:22:00.327Z,102482.66
2022-10-09T10:24:33.097Z,102485.09
2022-10-09T10:27:18.682Z,102480.09
2022-10-09T10:29:47.580Z,102469.78
2022-10-09T10:32:34.923Z,102470.09
2022-10-09T10:35:14.681Z,102467.38
2022-10-09T10:37:45.150Z,102460.78
2022-10-09T10:40:17.512Z,102464.31
2022-10-09T10:42:50.917Z,102456.72
2022-10-09T10:45:27.094Z,102452.75
2022-10-09T10:47:57.656Z,102447.22
2022-10-09T10:50:30.760Z,102444.16
2022-10-09T10:53:19.799Z,102455.25
2022-10-09T10:56:01.346Z,102450.22
2022-10-09T10:58:42.431Z,102432.94
2022-10-09T11:01:27.953Z,102430.19
2022-10-09T11:04:08.281Z,102422.72
2022-10-09T11:07:07.151Z,102428.72
2022-10-09T11:09:56.126Z,102415.13
2022-10-09T11:12:48.204Z,102412.00
2022-10-09T11:15:30.929Z,102407.75
2022-10-09T11:18:30.965Z,102406.47
2022-10-09T11:21:23.177Z,102402.06
2022-10-09T11:24:06.723Z,102396.34
2022-10-09T11:26:57.567Z,102388.25
2022-10-09T11:29:41.666Z,102381.44
2022-10-09T11:32:20.242Z,102376.94
2022-10-09T11:35:15.805Z,102378.06
2022-10-09T11:37:45.134Z,102369.06
2022-10-09T11:40:22.883Z,102366.16
2022-10-09T11:43:00.380Z,102368.81
2022-10-09T11:45:51.152Z,102364.78
2022-10-09T11:48:45.389Z,102356.78
2022-10-09T11:51:57.467Z,102347.13
2022-10-09T11:54:27.367Z,102342.50
2022-10-09T11:56:56.701Z,102334.53
2022-10-09T11:59:29.681Z,102329.44
2022-10-09T12:01:58.944Z,102324.00
2022-10-09T12:04:50.442Z,102323.16
2022-10-09T12:10:33.703Z,102310.53
2022-10-09T12:13:05.555Z,102304.38
2022-10-09T12:15:40.308Z,102303.59
2022-10-09T12:18:20.915Z,102287.22
2022-10-09T12:20:49.195Z,102283.13
2022-10-09T12:23:26.706Z,102275.22
2022-10-09T12:25:55.425Z,102275.56
2022-10-09T12:28:36.536Z,102267.34
2022-10-09T12:31:07.028Z,102255.72
2022-10-09T12:33:41.744Z,102252.84
2022-10-09T12:36:22.096Z,102253.22
2022-10-09T12:38:48.534Z,102251.06
2022-10-09T12:41:21.928Z,102253.22
2022-10-09T12:43:52.941Z,102243.72
2022-10-09T12:46:34.614Z,102233.56
2022-10-09T12:49:04.354Z,102233.81
2022-10-09T12:51:33.222Z,102227.50
2022-10-09T12:54:01.182Z,102224.03
2022-10-09T12:56:38.908Z,102213.97
2022-10-09T12:59:09.758Z,102207.34
2022-10-09T13:01:38.982Z,102208.47
2022-10-09T13:04:08.570Z,102203.22
2022-10-09T13:06:43.257Z,102191.78
2022-10-09T13:09:49.567Z,102201.53
2022-10-09T13:12:22.040Z,102192.25
2022-10-09T13:14:58.960Z,102188.78
2022-10-09T13:17:39.427Z,102185.50
2022-10-09T13:20:12.922Z,102174.16
2022-10-09T13:22:43.538Z,102167.38
2022-10-09T13:25:10.323Z,102167.38
2022-10-09T13:27:41.768Z,102159.72
2022-10-09T13:30:11.778Z,102162.78
2022-10-09T13:32:38.559Z,102154.63
2022-10-09T13:35:05.807Z,102149.53
2022-10-09T13:37:32.609Z,102141.25
2022-10-09T13:40:00.312Z,102137.91
2022-10-09T13:42:32.044Z,102134.50
2022-10-09T13:45:01.108Z,102133.53
2022-10-09T13:47:27.807Z,102132.47
2022-10-09T13:49:54.348Z,102128.75
2022-10-09T13:52:20.985Z,102123.44
2022-10-09T13:54:47.419Z,102117.56
2022-10-09T13:57:13.926Z,102116.19
2022-10-09T13:59:40.454Z,102115.94
2022-10-09T14:02:07.374Z,102114.59
2022-10-09T14:04:34.064Z,102110.88
2022-10-09T14:07:00.577Z,102113.03
2022-10-09T14:09:27.147Z,102103.50
2022-10-09T14:11:53.773Z,102101.66
2022-10-09T14:14:22.531Z,102098.69
2022-10-09T14:16:50.770Z,102091.75
2022-10-09T14:19:18.144Z,102086.44
2022-10-09T14:21:46.780Z,102090.69
2022-10-09T14:24:14.753Z,102089.09
2022-10-09T14:26:41.355Z,102074.91
2022-10-09T14:29:09.251Z,102074.84
2022-10-09T14:31:35.824Z,102074.53
2022-10-09T14:34:02.314Z,102069.47
2022-10-09T14:36:31.580Z,102070.19
2022-10-09T14:39:01.268Z,102056.41
2022-10-09T14:41:30.077Z,102044.41
2022-10-09T14:43:59.878Z,102039.31
2022-10-09T14:46:28.005Z,102047.56
2022-10-09T14:48:55.962Z,102048.03
2022-10-09T14:51:25.401Z,102037.13
2022-10-09T14:53:55.634Z,102034.47
2022-10-09T14:56:22.186Z,102040.59
2022-10-09T14:58:48.723Z,102028.81
2022-10-09T15:01:18.995Z,102025.59
2022-10-09T15:03:46.148Z,102026.06
2022-10-09T15:06:13.550Z,102019.88
2022-10-09T15:08:42.338Z,102015.00
2022-10-09T15:11:10.561Z,102017.34
2022-10-09T15:13:37.938Z,102006.13
2022-10-09T15:16:08.281Z,102007.44
2022-10-09T15:18:34.813Z,102006.91
2022-10-09T15:21:04.196Z,102000.47
2022-10-09T15:23:31.468Z,102002.56
2022-10-09T15:25:59.758Z,101994.03
2022-10-09T15:28:26.623Z,101990.81
2022-10-09T15:30:56.450Z,101993.41
2022-10-09T15:33:23.090Z,101988.81
2022-10-09T15:35:50.580Z,101973.84
2022-10-09T15:38:19.612Z,101972.47
2022-10-09T15:40:49.525Z,101974.53
2022-10-09T15:43:18.263Z,101971.88
2022-10-09T15:45:44.966Z,101964.63
2022-10-09T15:48:17.597Z,101959.50
2022-10-09T15:50:46.408Z,101958.84
2022-10-09T15:53:15.148Z,101955.88
2022-10-09T15:59:30.048Z,101948.50
2022-10-09T16:01:56.753Z,101946.03
2022-10-09T16:04:23.469Z,101940.28
2022-10-09T16:06:52.273Z,101933.75
2022-10-09T16:09:18.968Z,101933.38
2022-10-09T16:11:48.008Z,101927.66
2022-10-09T16:14:17.492Z,101925.94
2022-10-09T16:16:45.640Z,101925.88
2022-10-09T16:19:12.359Z,101922.00
2022-10-09T16:21:39.992Z,101921.84
2022-10-09T16:24:06.536Z,101921.66
2022-10-09T16:26:33.271Z,101916.50
2022-10-09T16:29:01.045Z,101918.13
2022-10-09T16:31:30.815Z,101915.31
2022-10-09T16:33:58.427Z,101913.50
2022-10-09T16:36:25.048Z,101912.50
2022-10-09T16:38:51.642Z,101913.09
2022-10-09T16:41:21.143Z,101913.44
2022-10-09T16:43:50.587Z,101907.34
2022-10-09T16:46:23.700Z,101910.84
2022-10-09T16:48:51.962Z,101913.28
2022-10-09T16:51:21.969Z,101911.19
2022-10-09T16:53:50.782Z,101918.09
2022-10-09T16:56:20.178Z,101914.66
2022-10-09T16:58:47.200Z,101913.84
2022-10-09T17:01:14.305Z,101915.44
2022-10-09T17:03:41.449Z,101923.25
2022-10-09T17:06:13.176Z,101920.78
2022-10-09T17:08:39.685Z,101917.88
2022-10-09T17:11:10.679Z,101905.41
2022-10-09T17:13:37.371Z,101912.25
2022-10-09T17:16:09.162Z,101909.34
2022-10-09T17:18:36.629Z,101909.28
2022-10-09T17:21:05.069Z,101907.97
2022-10-09T17:23:32.432Z,101909.53
2022-10-09T17:26:00.544Z,101908.44
2022-10-09T17:28:27.132Z,101909.97
2022-10-09T17:30:53.726Z,101908.44
2022-10-09T17:33:20.264Z,101906.09
2022-10-09T17:35:46.848Z,101904.53
2022-10-09T17:38:13.425Z,101900.94
2022-10-09T17:40:41.129Z,101907.50
2022-10-09T17:43:08.639Z,101904.00
2022-10-09T17:45:42.955Z,101907.91
2022-10-09T17:48:10.178Z,101902.09
2022-10-09T17:50:37.159Z,101904.16
2022-10-09T17:53:04.368Z,101898.59
2022-10-09T17:55:31.431Z,101897.22
2022-10-09T17:57:58.557Z,101893.22
2022-10-09T18:00:47.895Z,101890.63
2022-10-09T18:03:15.545Z,101888.25
2022-10-09T18:05:46.859Z,101878.59
2022-10-09T18:08:15.522Z,101883.88
2022-10-09T18:10:42.311Z,101883.88
2022-10-09T18:13:09.215Z,101883.28
2022-10-09T18:15:43.712Z,101878.41
2022-10-09T18:18:11.655Z,101877.66
2022-10-09T18:20:39.817Z,101877.69
2022-10-09T18:23:07.419Z,101875.31
2022-10-09T18:25:34.441Z,101871.09
2022-10-09T18:28:00.938Z,101873.53
2022-10-09T18:30:27.824Z,101869.50
2022-10-09T18:32:54.389Z,101869.16
2022-10-09T18:35:20.895Z,101865.53
2022-10-09T18:37:47.325Z,101874.06
2022-10-09T18:40:14.113Z,101860.50
2022-10-09T18:42:40.608Z,101865.97
2022-10-09T18:45:08.235Z,101854.22
2022-10-09T18:47:35.609Z,101861.94
2022-10-09T18:50:06.711Z,101850.03
2022-10-09T18:52:34.205Z,101853.50
2022-10-09T18:55:01.724Z,101853.31
2022-10-09T18:57:29.021Z,101848.25
2022-10-09T18:59:57.416Z,101859.19
2022-10-09T19:02:26.576Z,101851.09
2022-10-09T19:04:54.171Z,101853.72
2022-10-09T19:07:20.859Z,101848.25
2022-10-09T19:09:54.935Z,101859.78
2022-10-09T19:12:23.868Z,101850.06
2022-10-09T19:14:50.369Z,101854.31
2022-10-09T19:17:17.204Z,101847.44
2022-10-09T19:19:43.835Z,101841.81
2022-10-09T19:22:14.829Z,101844.22
2022-10-09T19:24:42.738Z,101830.06
2022-10-09T19:27:09.664Z,101830.25
2022-10-09T19:29:36.516Z,101830.47
2022-10-09T19:32:03.022Z,101833.91
2022-10-09T19:34:29.663Z,101829.44
2022-10-09T19:36:56.177Z,101823.78
2022-10-09T19:39:22.778Z,101828.22
2022-10-09T19:41:50.989Z,101827.59
2022-10-09T19:44:18.445Z,101824.75
2022-10-09T19:46:45.643Z,101823.13
2022-10-09T19:49:12.575Z,101829.56
2022-10-09T19:51:39.555Z,101817.47
2022-10-09T19:54:07.969Z,101811.78
2022-10-09T19:56:35.371Z,101806.56
2022-10-09T19:59:05.267Z,101815.22
2022-10-09T20:01:35.276Z,101807.50
2022-10-09T20:04:05.846Z,101806.88
2022-10-09T20:06:32.655Z,101801.59
2022-10-09T20:08:59.440Z,101801.00
2022-10-09T20:11:26.695Z,101803.00
2022-10-09T20:13:56.295Z,101793.91
2022-10-09T20:16:24.914Z,101793.47
2022-10-09T20:18:51.541Z,101788.00
2022-10-09T20:21:18.255Z,101783.53
2022-10-09T20:23:44.895Z,101778.84
2022-10-09T20:26:14.182Z,101779.84
2022-10-09T20:28:40.725Z,101777.66
2022-10-09T20:31:10.952Z,101775.22
2022-10-09T20:33:38.666Z,101770.97
2022-10-09T20:36:06.883Z,101781.47
2022-10-09T20:38:33.951Z,101780.00
2022-10-09T20:41:08.382Z,101773.91
2022-10-09T20:43:35.829Z,101773.47
2022-10-09T20:46:10.858Z,101769.44
2022-10-09T20:48:37.285Z,101781.72
2022-10-09T20:51:04.106Z,101774.25
2022-10-09T20:53:30.916Z,101764.94
2022-10-09T20:56:06.285Z,101764.75
2022-10-09T20:58:34.138Z,101759.88
2022-10-09T21:01:03.111Z,101753.22
2022-10-09T21:03:29.644Z,101745.16
2022-10-09T21:05:56.073Z,101741.94
2022-10-09T21:08:22.500Z,101741.50
2022-10-09T21:10:50.098Z,101733.22
2022-10-09T21:13:17.030Z,101735.03
2022-10-09T21:15:45.281Z,101743.88
2022-10-09T21:18:12.721Z,101735.97
2022-10-09T21:20:40.782Z,101740.16
2022-10-09T21:23:08.289Z,101732.88
2022-10-09T21:25:34.753Z,101733.44
2022-10-09T21:28:01.518Z,101733.63
2022-10-09T21:30:28.556Z,101731.63
2022-10-09T21:32:55.599Z,101733.25
2022-10-09T21:35:23.100Z,101730.63
2022-10-09T21:37:50.572Z,101726.78
2022-10-09T21:40:18.007Z,101718.69
2022-10-09T21:42:44.720Z,101719.69
2022-10-09T21:45:12.910Z,101719.06
2022-10-09T21:47:39.405Z,101720.06
2022-10-09T21:50:06.626Z,101720.25
2022-10-09T21:52:33.096Z,101716.44
2022-10-09T21:54:59.552Z,101717.25
2022-10-09T21:57:25.993Z,101716.63
2022-10-09T21:59:52.475Z,101718.38
2022-10-09T22:02:19.171Z,101714.91
2022-10-09T22:04:45.631Z,101715.09
2022-10-09T22:07:12.036Z,101705.84
2022-10-09T22:09:38.461Z,101701.97
2022-10-09T22:12:04.939Z,101704.59
2022-10-09T22:14:31.783Z,101708.00
2022-10-09T22:16:58.223Z,101707.38
2022-10-09T22:19:24.657Z,101703.72
2022-10-09T22:21:51.143Z,101701.47
2022-10-09T22:24:17.570Z,101695.63
2022-10-09T22:26:43.999Z,101697.63
2022-10-09T22:29:10.419Z,101700.59
2022-10-09T22:31:36.866Z,101694.56
2022-10-09T22:34:03.704Z,101693.31
2022-10-09T22:36:33.399Z,101690.69
2022-10-09T22:39:02.431Z,101693.31
2022-10-09T22:41:30.163Z,101690.88
2022-10-09T22:43:58.249Z,101685.41
2022-10-09T22:46:33.403Z,101683.59
2022-10-09T22:49:00.764Z,101684.22
2022-10-09T22:51:29.244Z,101685.22
2022-10-09T22:53:57.070Z,101678.19
2022-10-09T22:56:26.659Z,101673.94
2022-10-09T22:58:53.651Z,101676.75
2022-10-09T23:01:25.122Z,101671.28
2022-10-09T23:03:51.679Z,101675.47
2022-10-09T23:06:20.135Z,101669.34
2022-10-09T23:08:48.302Z,101672.16
2022-10-09T23:11:16.165Z,101663.69
2022-10-09T23:13:43.002Z,101661.69
2022-10-09T23:16:11.782Z,101662.31
2022-10-09T23:18:39.386Z,101652.03
2022-10-09T23:21:17.178Z,101651.97
2022-10-09T23:23:45.010Z,101651.16
2022-10-09T23:26:14.947Z,101648.91
2022-10-09T23:28:41.645Z,101649.28
2022-10-09T23:31:13.673Z,101650.28
2022-10-09T23:33:42.244Z,101644.25
2022-10-09T23:36:11.566Z,101651.09
2022-10-09T23:38:38.665Z,101644.25
2022-10-09T23:41:07.930Z,101636.81
2022-10-09T23:43:36.069Z,101641.41
2022-10-09T23:46:04.575Z,101629.69
2022-10-09T23:48:31.423Z,101635.75
2022-10-09T23:50:57.943Z,101633.13
2022-10-09T23:53:25.973Z,101626.09
2022-10-09T23:55:53.658Z,101626.91
2022-10-09T23:58:21.128Z,101626.91
